createdAt,value
2023-03-21T00:01:13.356Z,9.17
2023-03-21T00:04:50.891Z,9.18
2023-03-21T00:08:20.575Z,9.19
2023-03-21T00:11:47.457Z,9.22
2023-03-21T00:15:15.015Z,9.25
2023-03-21T00:18:42.926Z,9.28
2023-03-21T00:22:10.054Z,9.31
2023-03-21T00:25:38.163Z,9.36
2023-03-21T00:29:06.088Z,9.38
2023-03-21T00:32:35.555Z,9.41
2023-03-21T00:36:05.697Z,9.41
2023-03-21T00:39:35.422Z,9.34
2023-03-21T00:43:05.332Z,9.27
2023-03-21T00:46:44.054Z,9.22
2023-03-21T00:50:15.158Z,9.13
2023-03-21T00:53:42.018Z,9.03
2023-03-21T00:57:09.207Z,8.97
2023-03-21T01:00:39.545Z,8.95
2023-03-21T01:04:11.340Z,8.94
2023-03-21T01:07:38.647Z,8.94
2023-03-21T01:11:08.557Z,8.94
2023-03-21T01:14:35.627Z,8.96
2023-03-21T01:18:02.770Z,8.96
2023-03-21T01:21:33.558Z,9.00
2023-03-21T01:25:19.197Z,9.06
2023-03-21T01:28:48.809Z,9.13
2023-03-21T01:32:16.957Z,9.19
2023-03-21T01:35:55.323Z,9.22
2023-03-21T01:39:29.439Z,9.21
2023-03-21T01:42:57.145Z,9.22
2023-03-21T01:46:47.751Z,9.20
2023-03-21T01:50:38.312Z,9.15
2023-03-21T01:54:27.461Z,9.10
2023-03-21T01:58:05.831Z,9.03
2023-03-21T02:01:45.153Z,8.98
2023-03-21T02:05:15.786Z,8.94
2023-03-21T02:08:43.259Z,8.91
2023-03-21T02:12:16.715Z,8.90
2023-03-21T02:15:53.884Z,8.90
2023-03-21T02:20:22.350Z,8.92
2023-03-21T02:24:28.822Z,8.95
2023-03-21T02:28:02.182Z,8.98
2023-03-21T02:31:42.255Z,9.01
2023-03-21T02:35:26.850Z,9.05
2023-03-21T02:39:04.408Z,9.09
2023-03-21T02:42:43.388Z,9.14
2023-03-21T02:46:17.533Z,9.16
2023-03-21T02:49:49.503Z,9.16
2023-03-21T02:53:21.345Z,9.07
2023-03-21T02:56:51.322Z,9.03
2023-03-21T03:00:21.875Z,8.99
2023-03-21T03:03:50.430Z,8.91
2023-03-21T03:07:29.978Z,8.86
2023-03-21T03:11:10.642Z,8.79
2023-03-21T03:15:02.614Z,8.71
2023-03-21T03:18:36.913Z,8.66
2023-03-21T03:22:08.361Z,8.64
2023-03-21T03:25:46.384Z,8.63
2023-03-21T03:29:19.966Z,8.63
2023-03-21T03:32:51.909Z,8.65
2023-03-21T03:36:31.426Z,8.67
2023-03-21T03:40:05.921Z,8.71
2023-03-21T03:43:41.733Z,8.72
2023-03-21T03:47:22.862Z,8.73
2023-03-21T03:51:02.817Z,8.78
2023-03-21T03:54:46.708Z,8.81
2023-03-21T03:58:22.874Z,8.79
2023-03-21T04:01:50.839Z,8.76
2023-03-21T04:05:21.685Z,8.72
2023-03-21T04:08:48.602Z,8.69
2023-03-21T04:12:16.323Z,8.63
2023-03-21T04:15:56.385Z,8.56
2023-03-21T04:19:24.048Z,8.50
2023-03-21T04:22:51.445Z,8.43
2023-03-21T04:26:18.819Z,8.38
2023-03-21T04:29:57.661Z,8.35
2023-03-21T04:33:48.367Z,8.37
2023-03-21T04:37:15.829Z,8.38
2023-03-21T04:40:45.625Z,8.42
2023-03-21T04:44:14.008Z,8.43
2023-03-21T04:47:42.203Z,8.45
2023-03-21T04:51:09.988Z,8.51
2023-03-21T04:54:37.915Z,8.55
2023-03-21T04:58:05.796Z,8.58
2023-03-21T05:01:34.321Z,8.60
2023-03-21T05:05:07.116Z,8.56
2023-03-21T05:08:36.612Z,8.51
2023-03-21T05:12:03.886Z,8.48
2023-03-21T05:15:33.939Z,8.45
2023-03-21T05:19:05.100Z,8.42
2023-03-21T05:22:40.760Z,8.37
2023-03-21T05:26:14.530Z,8.33
2023-03-21T05:29:55.651Z,8.30
2023-03-21T05:33:25.567Z,8.27
2023-03-21T05:36:53.172Z,8.25
2023-03-21T05:40:21.628Z,8.25
2023-03-21T05:43:49.328Z,8.27
2023-03-21T05:47:17.508Z,8.33
2023-03-21T05:50:46.635Z,8.39
2023-03-21T05:54:17.497Z,8.47
2023-03-21T05:57:52.068Z,8.55
2023-03-21T06:01:25.734Z,8.64
2023-03-21T06:05:09.253Z,8.68
2023-03-21T06:08:37.229Z,8.74
2023-03-21T06:12:03.836Z,8.78
2023-03-21T06:15:49.930Z,8.72
2023-03-21T06:19:19.977Z,8.73
2023-03-21T06:23:12.033Z,8.67
2023-03-21T06:26:38.981Z,8.64
2023-03-21T06:30:07.375Z,8.60
2023-03-21T06:33:44.417Z,8.54
2023-03-21T06:37:12.639Z,8.54
2023-03-21T06:40:42.453Z,8.53
2023-03-21T06:44:09.633Z,8.52
2023-03-21T06:47:44.539Z,8.56
2023-03-21T06:51:23.385Z,8.61
2023-03-21T06:55:05.234Z,8.66
2023-03-21T06:58:32.550Z,8.73
2023-03-21T07:01:59.853Z,8.81
2023-03-21T07:05:27.321Z,8.90
2023-03-21T07:08:54.735Z,8.94
2023-03-21T07:12:23.455Z,8.98
2023-03-21T07:16:08.752Z,9.03
2023-03-21T07:19:35.348Z,9.10
2023-03-21T07:23:02.203Z,9.11
2023-03-21T07:26:30.007Z,9.14
2023-03-21T07:29:58.014Z,9.18
2023-03-21T07:33:27.777Z,9.21
2023-03-21T07:36:57.914Z,9.23
2023-03-21T07:40:25.618Z,9.28
2023-03-21T07:43:52.722Z,9.32
2023-03-21T07:47:20.237Z,9.38
2023-03-21T07:50:47.636Z,9.44
2023-03-21T07:54:14.447Z,9.52
2023-03-21T07:57:41.823Z,9.62
2023-03-21T08:01:08.746Z,9.71
2023-03-21T08:04:36.368Z,9.77
2023-03-21T08:08:03.764Z,9.87
2023-03-21T08:11:31.746Z,10.00
2023-03-21T08:15:01.072Z,10.13
2023-03-21T08:18:29.260Z,10.22
2023-03-21T08:22:01.190Z,10.26
2023-03-21T08:25:28.184Z,10.27
2023-03-21T08:28:56.066Z,10.32
2023-03-21T08:32:28.733Z,10.36
2023-03-21T08:35:55.351Z,10.36
2023-03-21T08:39:22.840Z,10.38
2023-03-21T08:42:50.585Z,10.39
2023-03-21T08:46:17.213Z,10.38
2023-03-21T08:49:45.927Z,10.42
2023-03-21T08:53:12.818Z,10.49
2023-03-21T08:56:39.937Z,10.60
2023-03-21T09:00:13.215Z,10.74
2023-03-21T09:03:39.852Z,10.84
2023-03-21T09:07:06.608Z,10.93
2023-03-21T09:10:33.602Z,11.00
2023-03-21T09:14:00.907Z,11.02
2023-03-21T09:17:27.916Z,11.05
2023-03-21T09:20:55.792Z,11.04
2023-03-21T09:24:23.053Z,11.02
2023-03-21T09:27:49.895Z,10.97
2023-03-21T09:31:22.122Z,10.90
2023-03-21T09:34:49.237Z,10.97
2023-03-21T09:38:17.711Z,11.09
2023-03-21T09:42:01.745Z,11.17
2023-03-21T09:45:38.502Z,11.20
2023-03-21T09:49:10.154Z,11.33
2023-03-21T09:52:49.028Z,11.46
2023-03-21T09:56:17.406Z,11.51
2023-03-21T09:59:45.214Z,11.56
2023-03-21T10:03:24.001Z,11.61
2023-03-21T10:07:02.130Z,11.59
2023-03-21T10:10:33.972Z,11.57
2023-03-21T10:14:05.214Z,11.57
2023-03-21T10:17:36.519Z,11.59
2023-03-21T10:21:04.258Z,11.61
2023-03-21T10:24:34.690Z,11.63
2023-03-21T10:28:03.988Z,11.62
2023-03-21T10:31:32.846Z,11.63
2023-03-21T10:35:01.882Z,11.67
2023-03-21T10:38:29.775Z,11.71
2023-03-21T10:41:56.828Z,11.77
2023-03-21T10:45:26.006Z,11.89
2023-03-21T10:48:56.096Z,11.95
2023-03-21T10:52:28.854Z,12.09
2023-03-21T10:55:59.125Z,12.24
2023-03-21T10:59:29.876Z,12.36
2023-03-21T11:02:58.844Z,12.42
2023-03-21T11:06:32.044Z,12.39
2023-03-21T11:10:00.582Z,12.41
2023-03-21T11:13:34.425Z,12.30
2023-03-21T11:16:59.296Z,12.48
2023-03-21T11:20:29.005Z,12.71
2023-03-21T11:23:58.681Z,12.99
2023-03-21T11:27:29.727Z,13.14
2023-03-21T11:30:59.161Z,13.27
2023-03-21T11:34:32.546Z,13.44
2023-03-21T11:38:00.299Z,13.58
2023-03-21T11:41:30.670Z,13.65
2023-03-21T11:45:06.454Z,13.68
2023-03-21T11:48:39.300Z,13.46
2023-03-21T11:52:20.901Z,13.33
2023-03-21T11:55:58.812Z,13.24
2023-03-21T11:59:39.158Z,13.16
2023-03-21T12:03:38.188Z,13.05
2023-03-21T12:07:31.144Z,12.95
2023-03-21T12:11:04.968Z,12.96
2023-03-21T12:14:44.141Z,12.98
2023-03-21T12:18:23.225Z,12.98
2023-03-21T12:22:03.417Z,12.93
2023-03-21T12:25:35.541Z,12.89
2023-03-21T12:29:24.512Z,12.82
2023-03-21T12:33:04.502Z,12.74
2023-03-21T12:36:58.012Z,12.67
2023-03-21T12:40:43.816Z,12.61
2023-03-21T12:44:16.226Z,12.57
2023-03-21T12:47:47.031Z,12.56
2023-03-21T12:51:17.898Z,12.60
2023-03-21T12:54:50.123Z,12.60
2023-03-21T12:58:23.232Z,12.58
2023-03-21T13:01:53.515Z,12.57
2023-03-21T13:05:28.872Z,12.55
2023-03-21T13:09:02.118Z,12.52
2023-03-21T13:12:55.930Z,12.47
2023-03-21T13:16:27.229Z,12.38
2023-03-21T13:20:05.223Z,12.50
2023-03-21T13:23:39.770Z,12.76
2023-03-21T13:27:20.731Z,12.95
2023-03-21T13:30:49.046Z,13.06
2023-03-21T13:34:17.151Z,13.13
2023-03-21T13:37:52.279Z,13.17
2023-03-21T13:41:23.333Z,13.12
2023-03-21T13:44:54.274Z,13.04
2023-03-21T13:48:32.896Z,12.85
2023-03-21T13:52:01.262Z,12.66
2023-03-21T13:55:31.602Z,12.55
2023-03-21T13:59:11.548Z,12.46
2023-03-21T14:02:39.638Z,12.43
2023-03-21T14:06:07.539Z,12.43
2023-03-21T14:09:38.820Z,12.38
2023-03-21T14:13:10.969Z,12.46
2023-03-21T14:16:38.744Z,12.55
2023-03-21T14:20:17.065Z,12.91
2023-03-21T14:23:45.055Z,13.43
2023-03-21T14:27:13.018Z,13.64
2023-03-21T14:30:42.469Z,13.85
2023-03-21T14:34:11.322Z,14.05
2023-03-21T14:37:44.423Z,13.96
2023-03-21T14:41:23.926Z,13.85
2023-03-21T14:44:56.213Z,13.85
2023-03-21T14:48:30.561Z,14.09
2023-03-21T14:52:01.096Z,14.24
2023-03-21T14:55:28.780Z,14.25
2023-03-21T14:58:56.507Z,14.11
2023-03-21T15:02:27.993Z,13.94
2023-03-21T15:05:55.897Z,13.74
2023-03-21T15:09:25.647Z,13.56
2023-03-21T15:12:57.223Z,13.42
2023-03-21T15:16:26.361Z,13.28
2023-03-21T15:19:54.054Z,13.14
2023-03-21T15:23:33.266Z,13.01
2023-03-21T15:27:04.229Z,12.90
2023-03-21T15:30:34.416Z,12.84
2023-03-21T15:34:03.017Z,12.78
2023-03-21T15:37:35.072Z,12.72
2023-03-21T15:41:31.722Z,12.65
2023-03-21T15:45:03.355Z,12.60
2023-03-21T15:48:31.239Z,12.54
2023-03-21T15:52:03.599Z,12.46
2023-03-21T15:55:41.080Z,12.40
2023-03-21T15:59:13.943Z,12.31
2023-03-21T16:02:43.669Z,12.22
2023-03-21T16:06:22.927Z,12.11
2023-03-21T16:09:50.243Z,12.00
2023-03-21T16:13:18.640Z,11.92
2023-03-21T16:16:46.265Z,11.83
2023-03-21T16:20:21.611Z,11.74
2023-03-21T16:23:48.774Z,11.66
2023-03-21T16:27:24.400Z,11.56
2023-03-21T16:30:51.045Z,11.46
2023-03-21T16:34:17.681Z,11.33
2023-03-21T16:37:44.855Z,11.23
2023-03-21T16:41:14.841Z,11.14
2023-03-21T16:44:41.602Z,11.04
2023-03-21T16:48:12.570Z,10.94
2023-03-21T16:51:40.418Z,10.85
2023-03-21T16:55:09.063Z,10.76
2023-03-21T16:58:35.528Z,10.68
2023-03-21T17:02:14.020Z,10.62
2023-03-21T17:05:41.132Z,10.54
2023-03-21T17:09:08.294Z,10.48
2023-03-21T17:12:35.130Z,10.42
2023-03-21T17:16:07.199Z,10.38
2023-03-21T17:19:36.214Z,10.34
2023-03-21T17:23:03.693Z,10.31
2023-03-21T17:26:33.512Z,10.31
2023-03-21T17:30:01.711Z,10.34
2023-03-21T17:33:30.885Z,10.35
2023-03-21T17:36:58.587Z,10.35
2023-03-21T17:40:30.131Z,10.32
2023-03-21T17:43:58.073Z,10.30
2023-03-21T17:47:26.054Z,10.27
2023-03-21T17:50:56.213Z,10.24
2023-03-21T17:54:23.264Z,10.20
2023-03-21T17:57:50.643Z,10.17
2023-03-21T18:01:17.764Z,10.16
2023-03-21T18:04:44.651Z,10.14
2023-03-21T18:08:13.048Z,10.10
2023-03-21T18:11:41.431Z,10.07
2023-03-21T18:15:14.608Z,10.04
2023-03-21T18:18:45.268Z,10.02
2023-03-21T18:22:18.296Z,9.99
2023-03-21T18:25:46.147Z,9.95
2023-03-21T18:30:17.498Z,9.94
2023-03-21T18:33:03.553Z,9.93
2023-03-21T18:36:30.801Z,9.90
2023-03-21T18:39:58.073Z,9.89
2023-03-21T18:47:14.612Z,9.90
2023-03-21T18:50:42.079Z,9.91
2023-03-21T18:54:08.552Z,9.94
2023-03-21T18:57:38.246Z,9.97
2023-03-21T19:01:07.065Z,10.00
2023-03-21T19:04:37.488Z,10.04
2023-03-21T19:08:04.962Z,10.06
2023-03-21T19:11:33.531Z,10.09
2023-03-21T19:15:06.112Z,10.10
2023-03-21T19:18:53.385Z,10.10
2023-03-21T19:22:24.581Z,10.08
2023-03-21T19:25:51.801Z,10.06
2023-03-21T19:29:22.659Z,10.01
2023-03-21T19:32:51.202Z,9.97
2023-03-21T19:36:22.897Z,9.93
2023-03-21T19:39:51.430Z,9.90
2023-03-21T19:43:32.284Z,9.86
2023-03-21T19:47:02.288Z,9.83
2023-03-21T19:50:57.952Z,9.80
2023-03-21T19:54:25.601Z,9.76
2023-03-21T19:57:53.894Z,9.75
2023-03-21T20:01:23.251Z,9.73
2023-03-21T20:04:54.437Z,9.74
2023-03-21T20:08:25.169Z,9.76
2023-03-21T20:11:53.858Z,9.79
2023-03-21T20:15:22.150Z,9.82
2023-03-21T20:18:52.805Z,9.88
2023-03-21T20:22:31.164Z,9.95
2023-03-21T20:26:13.686Z,10.02
2023-03-21T20:30:10.414Z,10.05
2023-03-21T20:33:38.924Z,10.07
2023-03-21T20:37:06.979Z,10.09
2023-03-21T20:40:34.046Z,10.07
2023-03-21T20:47:49.507Z,9.98
2023-03-21T20:55:09.684Z,9.90
2023-03-21T20:58:59.336Z,9.89
2023-03-21T21:02:30.136Z,9.87
2023-03-21T21:05:59.375Z,9.84
2023-03-21T21:09:26.335Z,9.81
2023-03-21T21:12:53.726Z,9.79
2023-03-21T21:16:24.356Z,9.76
2023-03-21T21:19:53.183Z,9.74
2023-03-21T21:23:20.227Z,9.74
2023-03-21T21:26:47.686Z,9.75
2023-03-21T21:30:17.098Z,9.77
2023-03-21T21:33:46.402Z,9.78
2023-03-21T21:37:15.591Z,9.81
2023-03-21T21:40:43.227Z,9.83
2023-03-21T21:44:10.050Z,9.86
2023-03-21T21:47:37.268Z,9.89
2023-03-21T21:51:06.346Z,9.88
2023-03-21T21:54:37.115Z,9.85
2023-03-21T21:58:05.330Z,9.83
2023-03-21T22:01:34.951Z,9.80
2023-03-21T22:05:02.173Z,9.74
2023-03-21T22:08:29.894Z,9.68
2023-03-21T22:11:57.253Z,9.63
2023-03-21T22:15:24.173Z,9.61
2023-03-21T22:18:52.115Z,9.56
2023-03-21T22:22:22.822Z,9.54
2023-03-21T22:25:54.291Z,9.53
2023-03-21T22:29:21.447Z,9.54
2023-03-21T22:33:06.387Z,9.57
2023-03-21T22:36:35.332Z,9.62
2023-03-21T22:40:06.654Z,9.66
2023-03-21T22:43:41.328Z,9.68
2023-03-21T22:47:10.820Z,9.70
2023-03-21T22:50:41.148Z,9.74
2023-03-21T22:54:08.907Z,9.75
2023-03-21T22:57:35.843Z,9.76
2023-03-21T23:01:06.646Z,9.78
2023-03-21T23:04:34.966Z,9.76
2023-03-21T23:08:02.248Z,9.72
2023-03-21T23:11:30.893Z,9.66
2023-03-21T23:14:58.482Z,9.60
2023-03-21T23:18:26.970Z,9.53
2023-03-21T23:21:53.379Z,9.47
2023-03-21T23:25:21.269Z,9.39
2023-03-21T23:28:48.876Z,9.35
2023-03-21T23:32:16.805Z,9.29
2023-03-21T23:35:46.417Z,9.27
2023-03-21T23:39:13.449Z,9.25
2023-03-21T23:42:43.065Z,9.25
2023-03-21T23:46:11.808Z,9.26
2023-03-21T23:49:39.283Z,9.28
2023-03-21T23:53:06.754Z,9.30
2023-03-21T23:56:33.928Z,9.28
